sensor_id;sensor_type;location;lat;lon;timestamp;temperature;humidity
18229;DHT22;9239;50.932;3.142;2024-02-21T00:02:20;9.50;99.90
18229;DHT22;9239;50.932;3.142;2024-02-21T00:04:47;9.60;99.90
18229;DHT22;9239;50.932;3.142;2024-02-21T00:07:14;9.60;99.90
18229;DHT22;9239;50.932;3.142;2024-02-21T00:09:41;9.50;99.90
18229;DHT22;9239;50.932;3.142;2024-02-21T00:12:10;9.50;99.90
18229;DHT22;9239;50.932;3.142;2024-02-21T00:14:39;9.50;99.90
18229;DHT22;9239;50.932;3.142;2024-02-21T00:17:06;9.40;99.90
18229;DHT22;9239;50.932;3.142;2024-02-21T00:19:34;9.50;99.90
18229;DHT22;9239;50.932;3.142;2024-02-21T00:22:01;9.40;99.90
18229;DHT22;9239;50.932;3.142;2024-02-21T00:24:28;9.40;99.90
18229;DHT22;9239;50.932;3.142;2024-02-21T00:26:55;9.30;99.90
18229;DHT22;9239;50.932;3.142;2024-02-21T00:29:23;9.30;99.90
18229;DHT22;9239;50.932;3.142;2024-02-21T00:31:51;9.20;99.90
18229;DHT22;9239;50.932;3.142;2024-02-21T00:34:18;9.20;99.90
18229;DHT22;9239;50.932;3.142;2024-02-21T00:36:45;9.20;99.90
18229;DHT22;9239;50.932;3.142;2024-02-21T00:39:12;9.10;99.90
18229;DHT22;9239;50.932;3.142;2024-02-21T00:41:39;9.00;99.90
18229;DHT22;9239;50.932;3.142;2024-02-21T00:44:05;9.00;99.90
18229;DHT22;9239;50.932;3.142;2024-02-21T00:46:34;9.00;99.90
18229;DHT22;9239;50.932;3.142;2024-02-21T00:49:01;9.00;99.90
18229;DHT22;9239;50.932;3.142;2024-02-21T00:51:28;9.00;99.90
18229;DHT22;9239;50.932;3.142;2024-02-21T00:53:54;9.00;99.90
18229;DHT22;9239;50.932;3.142;2024-02-21T00:56:21;9.00;99.90
18229;DHT22;9239;50.932;3.142;2024-02-21T00:58:48;9.00;99.90
18229;DHT22;9239;50.932;3.142;2024-02-21T01:01:21;9.00;99.90
18229;DHT22;9239;50.932;3.142;2024-02-21T01:03:50;9.00;99.90
18229;DHT22;9239;50.932;3.142;2024-02-21T01:06:19;9.00;99.90
18229;DHT22;9239;50.932;3.142;2024-02-21T01:08:46;9.00;99.90
18229;DHT22;9239;50.932;3.142;2024-02-21T01:11:13;9.00;99.90
18229;DHT22;9239;50.932;3.142;2024-02-21T01:13:40;9.00;99.90
18229;DHT22;9239;50.932;3.142;2024-02-21T01:16:07;9.00;99.90
18229;DHT22;9239;50.932;3.142;2024-02-21T01:18:34;9.00;99.90
18229;DHT22;9239;50.932;3.142;2024-02-21T01:21:03;8.90;99.90
18229;DHT22;9239;50.932;3.142;2024-02-21T01:23:32;8.90;99.90
18229;DHT22;9239;50.932;3.142;2024-02-21T01:25:59;8.90;99.90
18229;DHT22;9239;50.932;3.142;2024-02-21T01:28:26;8.90;99.90
18229;DHT22;9239;50.932;3.142;2024-02-21T01:30:53;9.00;99.90
18229;DHT22;9239;50.932;3.142;2024-02-21T01:33:20;9.00;99.90
18229;DHT22;9239;50.932;3.142;2024-02-21T01:35:47;9.00;99.90
18229;DHT22;9239;50.932;3.142;2024-02-21T01:38:16;9.00;99.90
18229;DHT22;9239;50.932;3.142;2024-02-21T01:40:43;8.90;99.90
18229;DHT22;9239;50.932;3.142;2024-02-21T01:43:16;8.90;99.90
18229;DHT22;9239;50.932;3.142;2024-02-21T01:45:44;8.80;99.90
18229;DHT22;9239;50.932;3.142;2024-02-21T01:48:13;8.90;99.90
18229;DHT22;9239;50.932;3.142;2024-02-21T01:50:40;8.80;99.90
18229;DHT22;9239;50.932;3.142;2024-02-21T01:53:08;8.80;99.90
18229;DHT22;9239;50.932;3.142;2024-02-21T01:55:36;8.80;99.90
18229;DHT22;9239;50.932;3.142;2024-02-21T01:58:03;8.80;99.90
18229;DHT22;9239;50.932;3.142;2024-02-21T02:00:31;8.80;99.90
18229;DHT22;9239;50.932;3.142;2024-02-21T02:02:59;8.90;99.90
18229;DHT22;9239;50.932;3.142;2024-02-21T02:05:26;8.90;99.90
18229;DHT22;9239;50.932;3.142;2024-02-21T02:07:54;9.00;99.90
18229;DHT22;9239;50.932;3.142;2024-02-21T02:10:21;9.00;99.90
18229;DHT22;9239;50.932;3.142;2024-02-21T02:12:49;9.00;99.90
18229;DHT22;9239;50.932;3.142;2024-02-21T02:15:16;9.10;99.90
18229;DHT22;9239;50.932;3.142;2024-02-21T02:17:43;9.00;99.90
18229;DHT22;9239;50.932;3.142;2024-02-21T02:20:11;9.00;99.90
18229;DHT22;9239;50.932;3.142;2024-02-21T02:22:39;9.00;99.90
18229;DHT22;9239;50.932;3.142;2024-02-21T02:25:10;9.00;99.90
18229;DHT22;9239;50.932;3.142;2024-02-21T02:27:42;9.00;99.90
18229;DHT22;9239;50.932;3.142;2024-02-21T02:30:11;9.00;99.90
18229;DHT22;9239;50.932;3.142;2024-02-21T02:32:38;9.10;99.90
18229;DHT22;9239;50.932;3.142;2024-02-21T02:35:05;9.00;99.90
18229;DHT22;9239;50.932;3.142;2024-02-21T02:37:32;9.00;99.90
18229;DHT22;9239;50.932;3.142;2024-02-21T02:39:59;9.10;99.90
18229;DHT22;9239;50.932;3.142;2024-02-21T02:42:28;9.20;99.90
18229;DHT22;9239;50.932;3.142;2024-02-21T02:44:55;9.10;99.90
18229;DHT22;9239;50.932;3.142;2024-02-21T02:47:22;9.20;99.90
18229;DHT22;9239;50.932;3.142;2024-02-21T02:49:49;9.20;99.90
18229;DHT22;9239;50.932;3.142;2024-02-21T02:52:17;9.20;99.90
18229;DHT22;9239;50.932;3.142;2024-02-21T02:54:44;9.20;99.90
18229;DHT22;9239;50.932;3.142;2024-02-21T02:57:12;9.20;99.90
18229;DHT22;9239;50.932;3.142;2024-02-21T02:59:40;9.20;99.90
18229;DHT22;9239;50.932;3.142;2024-02-21T03:02:07;9.20;99.90
18229;DHT22;9239;50.932;3.142;2024-02-21T03:04:34;9.20;99.90
18229;DHT22;9239;50.932;3.142;2024-02-21T03:07:01;9.10;99.90
18229;DHT22;9239;50.932;3.142;2024-02-21T03:09:28;9.20;99.90
18229;DHT22;9239;50.932;3.142;2024-02-21T03:11:55;9.10;99.90
18229;DHT22;9239;50.932;3.142;2024-02-21T03:14:28;9.10;99.90
18229;DHT22;9239;50.932;3.142;2024-02-21T03:16:56;9.10;99.90
18229;DHT22;9239;50.932;3.142;2024-02-21T03:19:23;9.10;99.90
18229;DHT22;9239;50.932;3.142;2024-02-21T03:21:50;9.10;99.90
18229;DHT22;9239;50.932;3.142;2024-02-21T03:24:18;9.20;99.90
18229;DHT22;9239;50.932;3.142;2024-02-21T03:26:45;9.10;99.90
18229;DHT22;9239;50.932;3.142;2024-02-21T03:29:13;9.30;99.90
18229;DHT22;9239;50.932;3.142;2024-02-21T03:31:41;9.30;99.90
18229;DHT22;9239;50.932;3.142;2024-02-21T03:34:10;9.20;99.90
18229;DHT22;9239;50.932;3.142;2024-02-21T03:36:37;9.20;99.90
18229;DHT22;9239;50.932;3.142;2024-02-21T03:39:04;9.20;99.90
18229;DHT22;9239;50.932;3.142;2024-02-21T03:41:31;9.20;99.90
18229;DHT22;9239;50.932;3.142;2024-02-21T03:43:58;9.30;99.90
18229;DHT22;9239;50.932;3.142;2024-02-21T03:46:25;9.30;99.90
18229;DHT22;9239;50.932;3.142;2024-02-21T03:48:52;9.30;99.90
18229;DHT22;9239;50.932;3.142;2024-02-21T03:51:20;9.30;99.90
18229;DHT22;9239;50.932;3.142;2024-02-21T03:53:47;9.20;99.90
18229;DHT22;9239;50.932;3.142;2024-02-21T03:56:14;9.30;99.90
18229;DHT22;9239;50.932;3.142;2024-02-21T03:58:41;9.30;99.90
18229;DHT22;9239;50.932;3.142;2024-02-21T04:01:07;9.30;99.90
18229;DHT22;9239;50.932;3.142;2024-02-21T04:03:35;9.20;99.90
18229;DHT22;9239;50.932;3.142;2024-02-21T04:06:03;9.30;99.90
18229;DHT22;9239;50.932;3.142;2024-02-21T04:08:32;9.30;99.90
18229;DHT22;9239;50.932;3.142;2024-02-21T04:10:58;9.30;99.90
18229;DHT22;9239;50.932;3.142;2024-02-21T04:13:25;9.30;99.90
18229;DHT22;9239;50.932;3.142;2024-02-21T04:15:52;9.40;99.90
18229;DHT22;9239;50.932;3.142;2024-02-21T04:18:19;9.40;99.90
18229;DHT22;9239;50.932;3.142;2024-02-21T04:20:47;9.40;99.90
18229;DHT22;9239;50.932;3.142;2024-02-21T04:23:13;9.30;99.90
18229;DHT22;9239;50.932;3.142;2024-02-21T04:25:42;9.30;99.90
18229;DHT22;9239;50.932;3.142;2024-02-21T04:28:09;9.30;99.90
18229;DHT22;9239;50.932;3.142;2024-02-21T04:30:35;9.30;99.90
18229;DHT22;9239;50.932;3.142;2024-02-21T04:33:03;9.30;99.90
18229;DHT22;9239;50.932;3.142;2024-02-21T04:35:30;9.30;99.90
18229;DHT22;9239;50.932;3.142;2024-02-21T04:37:57;9.30;99.90
18229;DHT22;9239;50.932;3.142;2024-02-21T04:40:24;9.30;99.90
18229;DHT22;9239;50.932;3.142;2024-02-21T04:42:52;9.40;99.90
18229;DHT22;9239;50.932;3.142;2024-02-21T04:45:19;9.40;99.90
18229;DHT22;9239;50.932;3.142;2024-02-21T04:47:46;9.40;99.90
18229;DHT22;9239;50.932;3.142;2024-02-21T04:50:13;9.40;99.90
18229;DHT22;9239;50.932;3.142;2024-02-21T04:52:40;9.40;99.90
18229;DHT22;9239;50.932;3.142;2024-02-21T04:55:08;9.40;99.90
18229;DHT22;9239;50.932;3.142;2024-02-21T04:57:35;9.40;99.90
18229;DHT22;9239;50.932;3.142;2024-02-21T05:00:04;9.40;99.90
18229;DHT22;9239;50.932;3.142;2024-02-21T05:02:31;9.30;99.90
18229;DHT22;9239;50.932;3.142;2024-02-21T05:04:58;9.40;99.90
18229;DHT22;9239;50.932;3.142;2024-02-21T05:07:25;9.40;99.90
18229;DHT22;9239;50.932;3.142;2024-02-21T05:09:52;9.30;99.90
18229;DHT22;9239;50.932;3.142;2024-02-21T05:12:19;9.40;99.90
18229;DHT22;9239;50.932;3.142;2024-02-21T05:14:47;9.40;99.90
18229;DHT22;9239;50.932;3.142;2024-02-21T05:17:15;9.30;99.90
18229;DHT22;9239;50.932;3.142;2024-02-21T05:19:42;9.30;99.90
18229;DHT22;9239;50.932;3.142;2024-02-21T05:22:09;9.30;99.90
18229;DHT22;9239;50.932;3.142;2024-02-21T05:24:36;9.30;99.90
18229;DHT22;9239;50.932;3.142;2024-02-21T05:27:03;9.30;99.90
18229;DHT22;9239;50.932;3.142;2024-02-21T05:29:30;9.30;99.90
18229;DHT22;9239;50.932;3.142;2024-02-21T05:31:57;9.30;99.90
18229;DHT22;9239;50.932;3.142;2024-02-21T05:34:25;9.30;99.90
18229;DHT22;9239;50.932;3.142;2024-02-21T05:36:53;9.40;99.90
18229;DHT22;9239;50.932;3.142;2024-02-21T05:39:20;9.30;99.90
18229;DHT22;9239;50.932;3.142;2024-02-21T05:41:48;9.40;99.90
18229;DHT22;9239;50.932;3.142;2024-02-21T05:44:16;9.40;99.90
18229;DHT22;9239;50.932;3.142;2024-02-21T05:46:43;9.30;99.90
18229;DHT22;9239;50.932;3.142;2024-02-21T05:49:10;9.30;99.90
18229;DHT22;9239;50.932;3.142;2024-02-21T05:51:38;9.30;99.90
18229;DHT22;9239;50.932;3.142;2024-02-21T05:54:05;9.30;99.90
18229;DHT22;9239;50.932;3.142;2024-02-21T05:56:33;9.30;99.90
18229;DHT22;9239;50.932;3.142;2024-02-21T05:58:59;9.40;99.90
18229;DHT22;9239;50.932;3.142;2024-02-21T06:01:27;9.30;99.90
18229;DHT22;9239;50.932;3.142;2024-02-21T06:03:54;9.30;99.90
18229;DHT22;9239;50.932;3.142;2024-02-21T06:06:21;9.40;99.90
18229;DHT22;9239;50.932;3.142;2024-02-21T06:08:49;9.40;99.90
18229;DHT22;9239;50.932;3.142;2024-02-21T06:11:16;9.40;99.90
18229;DHT22;9239;50.932;3.142;2024-02-21T06:13:43;9.40;99.90
18229;DHT22;9239;50.932;3.142;2024-02-21T06:16:10;9.50;99.90
18229;DHT22;9239;50.932;3.142;2024-02-21T06:18:36;9.40;99.90
18229;DHT22;9239;50.932;3.142;2024-02-21T06:21:04;9.40;99.90
18229;DHT22;9239;50.932;3.142;2024-02-21T06:23:31;9.40;99.90
18229;DHT22;9239;50.932;3.142;2024-02-21T06:25:59;9.40;99.90
18229;DHT22;9239;50.932;3.142;2024-02-21T06:28:26;9.40;99.90
18229;DHT22;9239;50.932;3.142;2024-02-21T06:30:53;9.40;99.90
18229;DHT22;9239;50.932;3.142;2024-02-21T06:33:20;9.40;99.90
18229;DHT22;9239;50.932;3.142;2024-02-21T06:35:50;9.30;99.90
18229;DHT22;9239;50.932;3.142;2024-02-21T06:38:19;9.30;99.90
18229;DHT22;9239;50.932;3.142;2024-02-21T06:40:46;9.30;99.90
18229;DHT22;9239;50.932;3.142;2024-02-21T06:43:18;9.30;99.90
18229;DHT22;9239;50.932;3.142;2024-02-21T06:45:45;9.30;99.90
18229;DHT22;9239;50.932;3.142;2024-02-21T06:48:16;9.40;99.90
18229;DHT22;9239;50.932;3.142;2024-02-21T06:50:43;9.40;99.90
18229;DHT22;9239;50.932;3.142;2024-02-21T06:53:10;9.30;99.90
18229;DHT22;9239;50.932;3.142;2024-02-21T06:55:37;9.30;99.90
18229;DHT22;9239;50.932;3.142;2024-02-21T06:58:04;9.30;99.90
18229;DHT22;9239;50.932;3.142;2024-02-21T07:00:35;9.30;99.90
18229;DHT22;9239;50.932;3.142;2024-02-21T07:03:02;9.40;99.90
18229;DHT22;9239;50.932;3.142;2024-02-21T07:05:29;9.30;99.90
18229;DHT22;9239;50.932;3.142;2024-02-21T07:07:56;9.30;99.90
18229;DHT22;9239;50.932;3.142;2024-02-21T07:10:23;9.30;99.90
18229;DHT22;9239;50.932;3.142;2024-02-21T07:12:50;9.30;99.90
18229;DHT22;9239;50.932;3.142;2024-02-21T07:15:18;9.30;99.90
18229;DHT22;9239;50.932;3.142;2024-02-21T07:17:46;9.30;99.90
18229;DHT22;9239;50.932;3.142;2024-02-21T07:20:13;9.30;99.90
18229;DHT22;9239;50.932;3.142;2024-02-21T07:22:40;9.30;99.90
18229;DHT22;9239;50.932;3.142;2024-02-21T07:25:08;9.30;99.90
18229;DHT22;9239;50.932;3.142;2024-02-21T07:27:35;9.30;99.90
18229;DHT22;9239;50.932;3.142;2024-02-21T07:30:03;9.40;99.90
18229;DHT22;9239;50.932;3.142;2024-02-21T07:32:30;9.40;99.90
18229;DHT22;9239;50.932;3.142;2024-02-21T07:34:58;9.40;99.90
18229;DHT22;9239;50.932;3.142;2024-02-21T07:37:25;9.40;99.90
18229;DHT22;9239;50.932;3.142;2024-02-21T07:39:52;9.40;99.90
18229;DHT22;9239;50.932;3.142;2024-02-21T07:42:19;9.40;99.90
18229;DHT22;9239;50.932;3.142;2024-02-21T07:44:46;9.40;99.90
18229;DHT22;9239;50.932;3.142;2024-02-21T07:47:13;9.40;99.90
18229;DHT22;9239;50.932;3.142;2024-02-21T07:49:44;9.40;99.90
18229;DHT22;9239;50.932;3.142;2024-02-21T07:52:12;9.50;99.90
18229;DHT22;9239;50.932;3.142;2024-02-21T07:54:39;9.50;99.90
18229;DHT22;9239;50.932;3.142;2024-02-21T07:57:07;9.40;99.90
18229;DHT22;9239;50.932;3.142;2024-02-21T07:59:34;9.40;99.90
18229;DHT22;9239;50.932;3.142;2024-02-21T08:02:01;9.50;99.90
18229;DHT22;9239;50.932;3.142;2024-02-21T08:04:28;9.50;99.90
18229;DHT22;9239;50.932;3.142;2024-02-21T08:06:55;9.60;99.90
18229;DHT22;9239;50.932;3.142;2024-02-21T08:09:26;9.50;99.90
18229;DHT22;9239;50.932;3.142;2024-02-21T08:11:54;9.50;99.90
18229;DHT22;9239;50.932;3.142;2024-02-21T08:14:21;9.50;99.90
18229;DHT22;9239;50.932;3.142;2024-02-21T08:16:50;9.50;99.90
18229;DHT22;9239;50.932;3.142;2024-02-21T08:19:18;9.50;99.90
18229;DHT22;9239;50.932;3.142;2024-02-21T08:21:45;9.50;99.90
18229;DHT22;9239;50.932;3.142;2024-02-21T08:24:13;9.60;99.90
18229;DHT22;9239;50.932;3.142;2024-02-21T08:26:41;9.50;99.90
18229;DHT22;9239;50.932;3.142;2024-02-21T08:29:10;9.60;99.90
18229;DHT22;9239;50.932;3.142;2024-02-21T08:31:37;9.50;99.90
18229;DHT22;9239;50.932;3.142;2024-02-21T08:34:04;9.50;99.90
18229;DHT22;9239;50.932;3.142;2024-02-21T08:36:31;9.50;99.90
18229;DHT22;9239;50.932;3.142;2024-02-21T08:38:59;9.60;99.90
18229;DHT22;9239;50.932;3.142;2024-02-21T08:41:26;9.60;99.90
18229;DHT22;9239;50.932;3.142;2024-02-21T08:43:55;9.70;99.90
18229;DHT22;9239;50.932;3.142;2024-02-21T08:46:21;9.70;99.90
18229;DHT22;9239;50.932;3.142;2024-02-21T08:48:49;9.60;99.90
18229;DHT22;9239;50.932;3.142;2024-02-21T08:51:17;9.60;99.90
18229;DHT22;9239;50.932;3.142;2024-02-21T08:53:44;9.70;99.90
18229;DHT22;9239;50.932;3.142;2024-02-21T08:56:11;9.70;99.90
18229;DHT22;9239;50.932;3.142;2024-02-21T08:58:39;9.70;99.90
18229;DHT22;9239;50.932;3.142;2024-02-21T09:01:08;9.70;99.90
18229;DHT22;9239;50.932;3.142;2024-02-21T09:03:36;9.80;99.90
18229;DHT22;9239;50.932;3.142;2024-02-21T09:06:04;9.80;99.90
18229;DHT22;9239;50.932;3.142;2024-02-21T09:08:31;9.90;99.90
18229;DHT22;9239;50.932;3.142;2024-02-21T09:10:58;9.90;99.90
18229;DHT22;9239;50.932;3.142;2024-02-21T09:13:26;9.90;99.90
18229;DHT22;9239;50.932;3.142;2024-02-21T09:15:53;10.00;99.90
18229;DHT22;9239;50.932;3.142;2024-02-21T09:18:21;10.00;99.90
18229;DHT22;9239;50.932;3.142;2024-02-21T09:20:48;9.90;99.90
18229;DHT22;9239;50.932;3.142;2024-02-21T09:23:16;9.90;99.90
18229;DHT22;9239;50.932;3.142;2024-02-21T09:25:45;10.00;99.90
18229;DHT22;9239;50.932;3.142;2024-02-21T09:28:12;9.90;99.90
18229;DHT22;9239;50.932;3.142;2024-02-21T09:30:39;10.00;99.90
18229;DHT22;9239;50.932;3.142;2024-02-21T09:33:06;10.10;99.90
18229;DHT22;9239;50.932;3.142;2024-02-21T09:35:34;10.10;99.90
18229;DHT22;9239;50.932;3.142;2024-02-21T09:38:01;10.00;99.90
18229;DHT22;9239;50.932;3.142;2024-02-21T09:40:30;10.10;99.90
18229;DHT22;9239;50.932;3.142;2024-02-21T09:43:02;10.20;99.90
18229;DHT22;9239;50.932;3.142;2024-02-21T09:45:30;10.20;99.90
18229;DHT22;9239;50.932;3.142;2024-02-21T09:50:53;10.20;99.90
18229;DHT22;9239;50.932;3.142;2024-02-21T09:53:22;10.20;99.90
18229;DHT22;9239;50.932;3.142;2024-02-21T09:55:50;10.10;99.90
18229;DHT22;9239;50.932;3.142;2024-02-21T09:58:18;10.10;99.90
18229;DHT22;9239;50.932;3.142;2024-02-21T10:00:45;10.10;99.90
18229;DHT22;9239;50.932;3.142;2024-02-21T10:03:12;10.20;99.90
18229;DHT22;9239;50.932;3.142;2024-02-21T10:05:47;10.20;99.90
18229;DHT22;9239;50.932;3.142;2024-02-21T10:08:17;10.20;99.90
18229;DHT22;9239;50.932;3.142;2024-02-21T10:10:44;10.20;99.90
18229;DHT22;9239;50.932;3.142;2024-02-21T10:13:23;10.20;99.90
18229;DHT22;9239;50.932;3.142;2024-02-21T10:16:01;10.30;99.90
18229;DHT22;9239;50.932;3.142;2024-02-21T10:18:28;10.30;99.90
18229;DHT22;9239;50.932;3.142;2024-02-21T10:21:01;10.40;99.90
18229;DHT22;9239;50.932;3.142;2024-02-21T10:23:29;10.40;99.90
18229;DHT22;9239;50.932;3.142;2024-02-21T10:26:05;10.40;99.90
18229;DHT22;9239;50.932;3.142;2024-02-21T10:28:32;10.40;99.90
18229;DHT22;9239;50.932;3.142;2024-02-21T10:30:59;10.50;99.90
18229;DHT22;9239;50.932;3.142;2024-02-21T10:33:26;10.50;99.90
18229;DHT22;9239;50.932;3.142;2024-02-21T10:35:53;10.50;99.90
18229;DHT22;9239;50.932;3.142;2024-02-21T10:38:20;10.30;99.90
18229;DHT22;9239;50.932;3.142;2024-02-21T10:40:49;10.30;99.90
18229;DHT22;9239;50.932;3.142;2024-02-21T10:43:19;10.30;99.90
18229;DHT22;9239;50.932;3.142;2024-02-21T10:45:47;10.30;99.90
18229;DHT22;9239;50.932;3.142;2024-02-21T10:48:20;10.30;99.90
18229;DHT22;9239;50.932;3.142;2024-02-21T10:50:56;10.40;99.90
18229;DHT22;9239;50.932;3.142;2024-02-21T10:53:29;10.30;99.90
18229;DHT22;9239;50.932;3.142;2024-02-21T10:56:06;10.40;99.90
18229;DHT22;9239;50.932;3.142;2024-02-21T10:58:38;10.40;99.90
18229;DHT22;9239;50.932;3.142;2024-02-21T11:01:06;10.40;99.90
18229;DHT22;9239;50.932;3.142;2024-02-21T11:03:34;10.40;99.90
18229;DHT22;9239;50.932;3.142;2024-02-21T11:06:02;10.50;99.90
18229;DHT22;9239;50.932;3.142;2024-02-21T11:08:30;10.50;99.90
18229;DHT22;9239;50.932;3.142;2024-02-21T11:10:59;10.40;99.90
18229;DHT22;9239;50.932;3.142;2024-02-21T11:13:35;10.40;99.90
18229;DHT22;9239;50.932;3.142;2024-02-21T11:16:09;10.40;99.90
18229;DHT22;9239;50.932;3.142;2024-02-21T11:18:37;10.40;99.90
18229;DHT22;9239;50.932;3.142;2024-02-21T11:21:04;10.30;99.90
18229;DHT22;9239;50.932;3.142;2024-02-21T11:23:31;10.50;99.90
18229;DHT22;9239;50.932;3.142;2024-02-21T11:26:06;10.50;99.90
18229;DHT22;9239;50.932;3.142;2024-02-21T11:28:34;10.50;99.90
18229;DHT22;9239;50.932;3.142;2024-02-21T11:31:07;10.40;99.90
18229;DHT22;9239;50.932;3.142;2024-02-21T11:33:34;10.40;99.90
18229;DHT22;9239;50.932;3.142;2024-02-21T11:36:02;10.40;99.90
18229;DHT22;9239;50.932;3.142;2024-02-21T11:38:30;10.50;99.90
18229;DHT22;9239;50.932;3.142;2024-02-21T11:40:56;10.50;99.90
18229;DHT22;9239;50.932;3.142;2024-02-21T11:43:24;10.50;99.90
18229;DHT22;9239;50.932;3.142;2024-02-21T11:45:58;10.40;99.90
18229;DHT22;9239;50.932;3.142;2024-02-21T11:48:26;10.50;99.90
18229;DHT22;9239;50.932;3.142;2024-02-21T11:50:53;10.40;99.90
18229;DHT22;9239;50.932;3.142;2024-02-21T11:53:21;10.30;99.90
18229;DHT22;9239;50.932;3.142;2024-02-21T11:55:49;10.40;99.90
18229;DHT22;9239;50.932;3.142;2024-02-21T11:58:16;10.40;99.90
18229;DHT22;9239;50.932;3.142;2024-02-21T12:00:43;10.50;99.90
18229;DHT22;9239;50.932;3.142;2024-02-21T12:03:11;10.60;99.90
18229;DHT22;9239;50.932;3.142;2024-02-21T12:05:38;10.70;99.90
18229;DHT22;9239;50.932;3.142;2024-02-21T12:08:06;10.80;99.90
18229;DHT22;9239;50.932;3.142;2024-02-21T12:10:36;10.70;99.90
18229;DHT22;9239;50.932;3.142;2024-02-21T12:13:06;10.70;99.90
18229;DHT22;9239;50.932;3.142;2024-02-21T12:15:34;10.80;99.90
18229;DHT22;9239;50.932;3.142;2024-02-21T12:18:01;10.80;99.90
18229;DHT22;9239;50.932;3.142;2024-02-21T12:20:30;10.80;99.90
18229;DHT22;9239;50.932;3.142;2024-02-21T12:23:00;10.80;99.90
18229;DHT22;9239;50.932;3.142;2024-02-21T12:25:28;10.80;99.90
18229;DHT22;9239;50.932;3.142;2024-02-21T12:27:55;10.80;99.90
18229;DHT22;9239;50.932;3.142;2024-02-21T12:30:22;10.70;99.90
18229;DHT22;9239;50.932;3.142;2024-02-21T12:32:49;10.70;99.90
18229;DHT22;9239;50.932;3.142;2024-02-21T12:35:16;10.70;99.90
18229;DHT22;9239;50.932;3.142;2024-02-21T12:37:44;10.70;99.90
18229;DHT22;9239;50.932;3.142;2024-02-21T12:40:11;10.70;99.90
18229;DHT22;9239;50.932;3.142;2024-02-21T12:42:39;10.50;99.90
18229;DHT22;9239;50.932;3.142;2024-02-21T12:45:06;10.50;99.90
18229;DHT22;9239;50.932;3.142;2024-02-21T12:47:33;10.40;99.90
18229;DHT22;9239;50.932;3.142;2024-02-21T12:50:00;10.30;99.90
18229;DHT22;9239;50.932;3.142;2024-02-21T12:52:29;10.20;99.90
18229;DHT22;9239;50.932;3.142;2024-02-21T12:54:58;10.20;99.90
18229;DHT22;9239;50.932;3.142;2024-02-21T12:57:25;10.10;99.90
18229;DHT22;9239;50.932;3.142;2024-02-21T12:59:51;10.00;99.90
18229;DHT22;9239;50.932;3.142;2024-02-21T13:02:18;10.00;99.90
18229;DHT22;9239;50.932;3.142;2024-02-21T13:04:46;9.90;99.90
18229;DHT22;9239;50.932;3.142;2024-02-21T13:07:13;9.90;99.90
18229;DHT22;9239;50.932;3.142;2024-02-21T13:09:40;9.90;99.90
18229;DHT22;9239;50.932;3.142;2024-02-21T13:12:09;9.90;99.90
18229;DHT22;9239;50.932;3.142;2024-02-21T13:14:36;9.90;99.90
18229;DHT22;9239;50.932;3.142;2024-02-21T13:17:04;9.80;99.90
18229;DHT22;9239;50.932;3.142;2024-02-21T13:19:31;9.80;99.90
18229;DHT22;9239;50.932;3.142;2024-02-21T13:21:58;9.80;99.90
18229;DHT22;9239;50.932;3.142;2024-02-21T13:24:25;9.90;99.90
18229;DHT22;9239;50.932;3.142;2024-02-21T13:26:52;9.80;99.90
18229;DHT22;9239;50.932;3.142;2024-02-21T13:29:20;9.80;99.90
18229;DHT22;9239;50.932;3.142;2024-02-21T13:31:47;9.80;99.90
18229;DHT22;9239;50.932;3.142;2024-02-21T13:34:15;9.80;99.90
18229;DHT22;9239;50.932;3.142;2024-02-21T13:36:42;9.80;99.90
18229;DHT22;9239;50.932;3.142;2024-02-21T13:39:09;9.90;99.90
18229;DHT22;9239;50.932;3.142;2024-02-21T13:41:38;9.80;99.90
18229;DHT22;9239;50.932;3.142;2024-02-21T13:44:05;9.90;99.90
18229;DHT22;9239;50.932;3.142;2024-02-21T13:46:33;9.80;99.90
18229;DHT22;9239;50.932;3.142;2024-02-21T13:49:03;9.80;99.90
18229;DHT22;9239;50.932;3.142;2024-02-21T13:51:32;9.80;99.90
18229;DHT22;9239;50.932;3.142;2024-02-21T13:53:59;9.80;99.90
18229;DHT22;9239;50.932;3.142;2024-02-21T13:56:26;9.80;99.90
18229;DHT22;9239;50.932;3.142;2024-02-21T13:58:53;9.70;99.90
18229;DHT22;9239;50.932;3.142;2024-02-21T14:01:20;9.70;99.90
18229;DHT22;9239;50.932;3.142;2024-02-21T14:03:48;9.70;99.90
18229;DHT22;9239;50.932;3.142;2024-02-21T14:06:15;9.70;99.90
18229;DHT22;9239;50.932;3.142;2024-02-21T14:08:43;9.70;99.90
18229;DHT22;9239;50.932;3.142;2024-02-21T14:11:10;9.70;99.90
18229;DHT22;9239;50.932;3.142;2024-02-21T14:13:36;9.70;99.90
18229;DHT22;9239;50.932;3.142;2024-02-21T14:16:09;9.70;99.90
18229;DHT22;9239;50.932;3.142;2024-02-21T14:18:37;9.60;99.90
18229;DHT22;9239;50.932;3.142;2024-02-21T14:21:07;9.70;99.90
18229;DHT22;9239;50.932;3.142;2024-02-21T14:23:36;9.60;99.90
18229;DHT22;9239;50.932;3.142;2024-02-21T14:26:03;9.60;99.90
18229;DHT22;9239;50.932;3.142;2024-02-21T14:28:30;9.60;99.90
18229;DHT22;9239;50.932;3.142;2024-02-21T14:30:57;9.60;99.90
18229;DHT22;9239;50.932;3.142;2024-02-21T14:33:26;9.70;99.90
18229;DHT22;9239;50.932;3.142;2024-02-21T14:35:52;9.60;99.90
18229;DHT22;9239;50.932;3.142;2024-02-21T14:38:21;9.60;99.90
18229;DHT22;9239;50.932;3.142;2024-02-21T14:40:47;9.60;99.90
18229;DHT22;9239;50.932;3.142;2024-02-21T14:43:14;9.60;99.90
18229;DHT22;9239;50.932;3.142;2024-02-21T14:45:44;9.60;99.90
18229;DHT22;9239;50.932;3.142;2024-02-21T14:48:13;9.60;99.90
18229;DHT22;9239;50.932;3.142;2024-02-21T14:50:40;9.60;99.90
18229;DHT22;9239;50.932;3.142;2024-02-21T14:53:07;9.60;99.90
18229;DHT22;9239;50.932;3.142;2024-02-21T14:55:36;9.60;99.90
18229;DHT22;9239;50.932;3.142;2024-02-21T14:58:05;9.60;99.90
18229;DHT22;9239;50.932;3.142;2024-02-21T15:00:33;9.60;99.90
18229;DHT22;9239;50.932;3.142;2024-02-21T15:03:00;9.60;99.90
18229;DHT22;9239;50.932;3.142;2024-02-21T15:05:27;9.60;99.90
18229;DHT22;9239;50.932;3.142;2024-02-21T15:07:56;9.60;99.90
18229;DHT22;9239;50.932;3.142;2024-02-21T15:10:23;9.60;99.90
18229;DHT22;9239;50.932;3.142;2024-02-21T15:12:51;9.50;99.90
18229;DHT22;9239;50.932;3.142;2024-02-21T15:15:18;9.50;99.90
18229;DHT22;9239;50.932;3.142;2024-02-21T15:17:45;9.60;99.90
18229;DHT22;9239;50.932;3.142;2024-02-21T15:20:13;9.60;99.90
18229;DHT22;9239;50.932;3.142;2024-02-21T15:22:40;9.60;99.90
18229;DHT22;9239;50.932;3.142;2024-02-21T15:25:08;9.60;99.90
18229;DHT22;9239;50.932;3.142;2024-02-21T15:27:40;9.60;99.90
18229;DHT22;9239;50.932;3.142;2024-02-21T15:30:10;9.60;99.90
18229;DHT22;9239;50.932;3.142;2024-02-21T15:32:38;9.70;99.90
18229;DHT22;9239;50.932;3.142;2024-02-21T15:35:06;9.80;99.90
18229;DHT22;9239;50.932;3.142;2024-02-21T15:37:32;9.70;99.90
18229;DHT22;9239;50.932;3.142;2024-02-21T15:40:00;9.70;99.90
18229;DHT22;9239;50.932;3.142;2024-02-21T15:42:28;9.70;99.90
18229;DHT22;9239;50.932;3.142;2024-02-21T15:44:57;9.70;99.90
18229;DHT22;9239;50.932;3.142;2024-02-21T15:47:27;9.70;99.90
18229;DHT22;9239;50.932;3.142;2024-02-21T15:49:54;9.80;99.90
18229;DHT22;9239;50.932;3.142;2024-02-21T15:52:21;9.70;99.90
18229;DHT22;9239;50.932;3.142;2024-02-21T15:54:48;9.80;99.90
18229;DHT22;9239;50.932;3.142;2024-02-21T15:57:14;9.80;99.90
18229;DHT22;9239;50.932;3.142;2024-02-21T15:59:42;9.70;99.90
18229;DHT22;9239;50.932;3.142;2024-02-21T16:02:09;9.80;99.90
18229;DHT22;9239;50.932;3.142;2024-02-21T16:04:37;9.80;99.90